createdAt,value
2022-07-29T00:01:56.441Z,14.30
2022-07-29T00:06:22.013Z,14.30
2022-07-29T00:10:47.761Z,14.20
2022-07-29T00:15:13.665Z,14.10
2022-07-29T00:19:39.029Z,14.00
2022-07-29T00:24:08.408Z,13.90
2022-07-29T00:28:33.790Z,13.90
2022-07-29T00:32:59.150Z,13.80
2022-07-29T00:37:24.607Z,13.80
2022-07-29T00:41:50.857Z,13.70
2022-07-29T00:46:16.129Z,13.60
2022-07-29T00:50:41.725Z,13.60
2022-07-29T00:55:11.014Z,13.50
2022-07-29T00:59:36.841Z,13.50
2022-07-29T01:04:02.566Z,13.40
2022-07-29T01:08:28.222Z,13.40
2022-07-29T01:12:56.640Z,13.30
2022-07-29T01:18:04.956Z,13.30
2022-07-29T01:23:06.934Z,13.30
2022-07-29T01:28:14.042Z,13.20
2022-07-29T01:32:41.861Z,13.20
2022-07-29T01:37:16.312Z,13.10
2022-07-29T01:41:52.157Z,13.10
2022-07-29T01:46:26.810Z,12.90
2022-07-29T01:51:16.261Z,12.90
2022-07-29T01:55:45.708Z,12.90
2022-07-29T02:00:12.900Z,12.90
2022-07-29T02:04:40.375Z,12.90
2022-07-29T02:09:08.490Z,12.80
2022-07-29T02:13:37.019Z,12.80
2022-07-29T02:18:18.951Z,12.70
2022-07-29T02:22:47.170Z,12.70
2022-07-29T02:27:13.923Z,12.70
2022-07-29T02:31:40.202Z,12.60
2022-07-29T02:36:05.917Z,12.60
2022-07-29T02:40:31.262Z,12.60
2022-07-29T02:44:56.959Z,12.60
2022-07-29T02:49:22.592Z,12.50
2022-07-29T02:53:52.887Z,12.50
2022-07-29T02:58:30.542Z,12.50
2022-07-29T03:03:00.491Z,12.50
2022-07-29T03:07:26.226Z,12.40
2022-07-29T03:11:52.106Z,12.40
2022-07-29T03:16:19.630Z,12.40
2022-07-29T03:20:45.154Z,12.40
2022-07-29T03:25:15.622Z,12.40
2022-07-29T03:29:40.873Z,12.40
2022-07-29T03:34:11.638Z,12.50
2022-07-29T03:38:38.920Z,12.50
2022-07-29T03:43:06.919Z,12.50
2022-07-29T03:47:50.348Z,12.60
2022-07-29T03:52:17.580Z,12.60
2022-07-29T03:56:49.472Z,12.70
2022-07-29T04:01:15.967Z,12.70
2022-07-29T04:05:41.237Z,12.80
2022-07-29T04:10:07.564Z,12.90
2022-07-29T04:14:33.951Z,12.90
2022-07-29T04:19:00.408Z,13.00
2022-07-29T04:23:25.656Z,13.00
2022-07-29T04:28:02.663Z,13.10
2022-07-29T04:32:28.019Z,13.10
2022-07-29T04:36:53.282Z,13.20
2022-07-29T04:41:18.495Z,13.30
2022-07-29T04:45:46.054Z,13.40
2022-07-29T04:50:11.427Z,13.40
2022-07-29T04:54:36.977Z,13.50
2022-07-29T04:59:02.230Z,13.60
2022-07-29T05:03:27.474Z,13.70
2022-07-29T05:07:52.724Z,13.80
2022-07-29T05:12:18.030Z,14.00
2022-07-29T05:16:44.316Z,14.10
2022-07-29T05:21:09.564Z,14.20
2022-07-29T05:25:40.835Z,14.40
2022-07-29T05:30:10.956Z,14.50
2022-07-29T05:34:36.382Z,14.60
2022-07-29T05:39:01.687Z,14.70
2022-07-29T05:43:31.010Z,14.80
2022-07-29T05:47:56.319Z,15.00
2022-07-29T05:52:22.472Z,15.10
2022-07-29T05:56:48.201Z,15.30
2022-07-29T06:01:13.540Z,15.50
2022-07-29T06:05:38.887Z,15.70
2022-07-29T06:10:04.660Z,15.90
2022-07-29T06:14:29.942Z,16.10
2022-07-29T06:18:55.210Z,16.30
2022-07-29T06:23:21.568Z,16.40
2022-07-29T06:27:46.813Z,16.60
2022-07-29T06:32:12.274Z,16.70
2022-07-29T06:36:38.438Z,16.90
2022-07-29T06:41:06.829Z,17.10
2022-07-29T06:45:35.640Z,17.30
2022-07-29T06:50:00.977Z,17.60
2022-07-29T06:54:26.230Z,17.80
2022-07-29T06:58:51.573Z,18.00
2022-07-29T07:03:18.014Z,18.30
2022-07-29T07:07:43.302Z,18.50
2022-07-29T07:12:09.073Z,18.60
2022-07-29T07:16:34.422Z,18.70
2022-07-29T07:20:59.737Z,18.80
2022-07-29T07:25:25.069Z,19.00
2022-07-29T07:29:50.367Z,19.10
2022-07-29T07:34:16.072Z,19.30
2022-07-29T07:38:41.733Z,19.40
2022-07-29T07:43:07.112Z,19.60
2022-07-29T07:47:32.855Z,19.80
2022-07-29T07:51:59.504Z,19.90
2022-07-29T07:56:24.780Z,20.10
2022-07-29T08:00:50.159Z,20.30
2022-07-29T08:05:18.022Z,20.50
2022-07-29T08:09:43.409Z,20.80
2022-07-29T08:14:08.841Z,21.00
2022-07-29T08:18:34.153Z,21.30
2022-07-29T08:22:59.403Z,21.60
2022-07-29T08:27:42.987Z,21.80
2022-07-29T08:32:08.942Z,22.00
2022-07-29T08:36:35.234Z,22.20
2022-07-29T08:41:02.857Z,22.20
2022-07-29T08:45:30.639Z,22.30
2022-07-29T08:49:55.917Z,22.40
2022-07-29T08:54:23.389Z,22.50
2022-07-29T08:58:51.944Z,22.60
2022-07-29T09:03:21.140Z,22.70
2022-07-29T09:07:49.067Z,22.80
2022-07-29T09:12:29.411Z,23.10
2022-07-29T09:16:57.917Z,23.40
2022-07-29T09:21:42.350Z,23.60
2022-07-29T09:26:07.565Z,23.70
2022-07-29T09:30:32.924Z,24.00
2022-07-29T09:35:21.806Z,24.30
2022-07-29T09:39:47.381Z,24.40
2022-07-29T09:44:13.039Z,24.50
2022-07-29T09:48:38.316Z,24.50
2022-07-29T09:53:03.778Z,24.70
2022-07-29T09:57:31.266Z,24.90
2022-07-29T10:01:57.854Z,25.10
2022-07-29T10:06:23.420Z,25.10
2022-07-29T10:10:48.686Z,25.30
2022-07-29T10:15:13.978Z,25.40
2022-07-29T10:19:40.646Z,25.40
2022-07-29T10:24:07.601Z,25.30
2022-07-29T10:28:40.371Z,25.40
2022-07-29T10:33:34.418Z,25.70
2022-07-29T10:38:47.204Z,25.80
2022-07-29T10:43:23.892Z,25.90
2022-07-29T10:48:06.000Z,26.10
2022-07-29T10:52:53.681Z,26.20
2022-07-29T10:57:54.030Z,26.40
2022-07-29T11:02:42.387Z,26.40
2022-07-29T11:07:09.544Z,26.50
2022-07-29T11:11:35.192Z,26.50
2022-07-29T11:16:00.512Z,26.30
2022-07-29T11:20:51.097Z,26.20
2022-07-29T11:25:19.202Z,26.40
2022-07-29T11:30:06.108Z,26.50
2022-07-29T11:34:34.840Z,26.50
2022-07-29T11:39:36.662Z,26.60
2022-07-29T11:44:02.912Z,26.60
2022-07-29T11:48:31.986Z,26.60
2022-07-29T11:52:58.878Z,26.50
2022-07-29T11:57:36.295Z,26.40
2022-07-29T12:06:52.430Z,26.30
2022-07-29T12:11:22.696Z,26.20
2022-07-29T12:16:01.488Z,26.10
2022-07-29T12:20:30.378Z,26.00
2022-07-29T12:25:29.997Z,25.80
2022-07-29T12:29:47.767Z,25.80
2022-07-29T12:34:16.431Z,25.90
2022-07-29T12:38:42.342Z,25.80
2022-07-29T12:43:20.512Z,25.80
2022-07-29T12:47:55.047Z,25.80
2022-07-29T12:52:31.167Z,25.80
2022-07-29T12:57:01.099Z,25.60
2022-07-29T13:01:28.310Z,25.60
2022-07-29T13:05:53.644Z,25.50
2022-07-29T13:10:24.224Z,25.50
2022-07-29T13:14:51.405Z,25.50
2022-07-29T13:19:16.640Z,25.60
2022-07-29T13:23:42.456Z,25.50
2022-07-29T13:28:07.766Z,25.50
2022-07-29T13:32:35.463Z,25.40
2022-07-29T13:37:00.756Z,25.30
2022-07-29T13:41:26.825Z,25.20
2022-07-29T13:45:52.073Z,25.30
2022-07-29T13:50:17.436Z,25.30
2022-07-29T13:54:43.817Z,25.20
2022-07-29T13:59:09.129Z,25.20
2022-07-29T14:03:34.415Z,25.10
2022-07-29T14:07:59.680Z,25.10
2022-07-29T14:12:28.130Z,25.30
2022-07-29T14:16:53.423Z,25.50
2022-07-29T14:21:19.516Z,25.70
2022-07-29T14:25:44.750Z,25.90
2022-07-29T14:30:11.098Z,25.90
2022-07-29T14:34:38.164Z,26.00
2022-07-29T14:39:03.512Z,26.20
2022-07-29T14:43:28.846Z,26.50
2022-07-29T14:47:56.507Z,26.80
2022-07-29T14:52:22.806Z,27.10
2022-07-29T14:56:50.403Z,27.20
2022-07-29T15:01:15.796Z,27.40
2022-07-29T15:05:41.451Z,27.40
2022-07-29T15:10:07.329Z,27.50
2022-07-29T15:14:33.809Z,27.50
2022-07-29T15:19:01.241Z,27.60
2022-07-29T15:23:26.772Z,27.60
2022-07-29T15:27:53.975Z,27.80
2022-07-29T15:32:21.010Z,28.00
2022-07-29T15:36:53.992Z,28.10
2022-07-29T15:41:19.618Z,28.00
2022-07-29T15:46:03.789Z,28.20
2022-07-29T15:50:29.106Z,28.30
2022-07-29T15:54:56.344Z,28.50
2022-07-29T15:59:22.817Z,28.40
2022-07-29T16:03:48.229Z,28.40
2022-07-29T16:08:13.581Z,28.20
2022-07-29T16:12:38.915Z,28.20
2022-07-29T16:17:04.258Z,28.30
2022-07-29T16:21:31.488Z,28.10
2022-07-29T16:25:59.998Z,28.20
2022-07-29T16:30:26.098Z,28.20
2022-07-29T16:34:51.336Z,28.20
2022-07-29T16:39:16.632Z,28.20
2022-07-29T16:43:42.077Z,28.10
2022-07-29T16:48:07.426Z,28.00
2022-07-29T16:52:32.751Z,27.90
2022-07-29T16:57:00.660Z,27.80
2022-07-29T17:01:26.580Z,27.80
2022-07-29T17:05:54.155Z,27.70
2022-07-29T17:10:20.723Z,27.70
2022-07-29T17:14:46.010Z,27.70
2022-07-29T17:19:11.258Z,27.70
2022-07-29T17:23:36.521Z,27.60
2022-07-29T17:28:01.807Z,27.50
2022-07-29T17:32:27.288Z,27.40
2022-07-29T17:36:52.969Z,27.30
2022-07-29T17:41:18.408Z,27.30
2022-07-29T17:45:50.101Z,27.30
2022-07-29T17:50:15.999Z,27.10
2022-07-29T17:54:41.456Z,26.80
2022-07-29T17:59:08.550Z,26.50
2022-07-29T18:03:33.972Z,26.30
2022-07-29T18:07:59.256Z,26.00
2022-07-29T18:12:24.530Z,25.80
2022-07-29T18:16:49.921Z,25.60
2022-07-29T18:21:15.305Z,25.50
2022-07-29T18:25:40.806Z,25.40
2022-07-29T18:30:07.753Z,25.20
2022-07-29T18:34:33.154Z,25.00
2022-07-29T18:38:58.420Z,24.80
2022-07-29T18:43:23.690Z,24.70
2022-07-29T18:47:49.509Z,24.50
2022-07-29T18:52:14.892Z,24.30
2022-07-29T18:56:40.112Z,24.00
2022-07-29T19:01:06.434Z,23.80
2022-07-29T19:05:31.886Z,23.70
2022-07-29T19:09:57.146Z,23.60
2022-07-29T19:14:22.485Z,23.40
2022-07-29T19:18:48.666Z,23.30
2022-07-29T19:23:13.964Z,23.10
2022-07-29T19:27:39.304Z,23.00
2022-07-29T19:32:04.860Z,22.90
2022-07-29T19:36:33.971Z,22.70
2022-07-29T19:40:59.216Z,22.70
2022-07-29T19:45:26.056Z,22.50
2022-07-29T19:49:51.540Z,22.40
2022-07-29T19:54:18.243Z,22.30
2022-07-29T19:58:44.170Z,22.20
2022-07-29T20:03:10.829Z,22.20
2022-07-29T20:07:37.277Z,22.10
2022-07-29T20:12:04.723Z,22.00
2022-07-29T20:16:30.010Z,22.00
2022-07-29T20:20:57.207Z,22.00
2022-07-29T20:25:23.782Z,21.90
2022-07-29T20:29:48.930Z,21.80
2022-07-29T20:34:14.336Z,21.80
2022-07-29T20:38:39.595Z,21.70
2022-07-29T20:43:05.775Z,21.70
2022-07-29T20:47:31.312Z,21.60
2022-07-29T20:51:56.635Z,21.60
2022-07-29T20:56:21.948Z,21.50
2022-07-29T21:00:47.651Z,21.50
2022-07-29T21:05:12.892Z,21.40
2022-07-29T21:09:38.142Z,21.50
2022-07-29T21:14:04.048Z,21.40
2022-07-29T21:18:36.860Z,21.40
2022-07-29T21:23:02.118Z,21.30
2022-07-29T21:27:45.850Z,21.30
2022-07-29T21:32:11.110Z,21.20
2022-07-29T21:36:48.205Z,21.20
2022-07-29T21:41:15.383Z,21.20
2022-07-29T21:45:41.134Z,21.10
2022-07-29T21:50:06.673Z,21.10
2022-07-29T21:54:31.977Z,21.00
2022-07-29T21:58:57.167Z,21.00
2022-07-29T22:03:22.276Z,21.00
2022-07-29T22:07:55.227Z,21.00
2022-07-29T22:12:21.766Z,20.90
2022-07-29T22:16:47.252Z,20.90
2022-07-29T22:21:13.484Z,20.80
2022-07-29T22:25:38.726Z,20.80
2022-07-29T22:30:06.824Z,20.80
2022-07-29T22:34:37.749Z,20.70
2022-07-29T22:39:04.095Z,20.70
2022-07-29T22:43:29.443Z,20.70
2022-07-29T22:47:59.006Z,20.60
2022-07-29T22:52:24.629Z,20.50
2022-07-29T22:56:49.809Z,20.50
2022-07-29T23:01:16.110Z,20.50
2022-07-29T23:05:41.279Z,20.50
2022-07-29T23:10:06.689Z,20.40
2022-07-29T23:14:31.876Z,20.40
2022-07-29T23:18:57.008Z,20.40
2022-07-29T23:23:22.133Z,20.40
2022-07-29T23:27:47.404Z,20.30
2022-07-29T23:32:12.542Z,20.30
2022-07-29T23:36:37.683Z,20.30
2022-07-29T23:41:03.620Z,20.20
2022-07-29T23:45:32.564Z,20.20
2022-07-29T23:50:08.910Z,20.10
2022-07-29T23:54:34.104Z,20.10
2022-07-29T23:58:59.260Z,20.10
